Time;durP1;ratioP1;P1;durP2;ratioP2;P2;SDS_P1;SDS_P2;PMS_P1;PMS_P2;Temp;Humidity;BMP_temperature;BMP_pressure;BME280_temperature;BME280_humidity;BME280_pressure;Samples;Min_cycle;Max_cycle;Signal;HPM_P1;HPM_P2
2022/08/03 00:00:29;;;;;;;;;;;;;;;;;;;;;
2022/08/03 00:03:56;;;;;;;3.97;3.17;;;19.80;99.90;;;;;;5042574;28;20048;-89
2022/08/03 00:07:07;;;;;;;;;;;;;;;;;;;;;
2022/08/03 00:10:09;;;;;;;;;;;;;;;;;;;;;
2022/08/03 00:13:11;;;;;;;;;;;;;;;;;;;;;
2022/08/03 00:16:30;;;;;;;;;;;;;;;;;;;;;
2022/08/03 00:22:27;;;;;;;;;;;;;;;;;;;;;
2022/08/03 00:28:48;;;;;;;;;;;;;;;;;;;;;
2022/08/03 00:31:36;;;;;;;;;;;;;;;;;;;;;
2022/08/03 00:34:13;;;;;;;3.15;2.92;;;19.90;99.90;;;;;;5091474;28;20464;-89
2022/08/03 00:37:05;;;;;;;2.63;2.42;;;19.80;99.90;;;;;;5072820;28;20032;-88
2022/08/03 00:39:46;;;;;;;;;;;;;;;;;;;;;
2022/08/03 00:42:53;;;;;;;;;;;;;;;;;;;;;
2022/08/03 00:45:59;;;;;;;;;;;;;;;;;;;;;
2022/08/03 00:48:43;;;;;;;;;;;;;;;;;;;;;
2022/08/03 00:51:44;;;;;;;3.60;2.65;;;19.70;99.90;;;;;;5099161;28;20034;-88
2022/08/03 00:54:26;;;;;;;4.13;3.03;;;19.50;99.90;;;;;;5065978;28;20202;-88
2022/08/03 00:58:03;;;;;;;;;;;;;;;;;;;;;
2022/08/03 01:03:37;;;;;;;;;;;;;;;;;;;;;
2022/08/03 01:06:27;;;;;;;;;;;;;;;;;;;;;
2022/08/03 01:09:30;;;;;;;3.58;3.08;;;19.30;99.90;;;;;;5084218;28;20054;-90
2022/08/03 01:12:23;;;;;;;3.47;3.17;;;19.30;99.90;;;;;;5100478;28;20051;-90
2022/08/03 01:20:56;;;;;;;3.22;2.92;;;19.20;99.90;;;;;;5079326;28;20040;-89
2022/08/03 01:23:57;;;;;;;3.97;3.10;;;19.30;99.90;;;;;;5068614;28;20119;-88
2022/08/03 01:27:01;;;;;;;4.35;3.60;;;19.20;99.90;;;;;;5076399;28;20033;-88
2022/08/03 01:30:20;;;;;;;3.30;3.00;;;19.20;99.90;;;;;;5050556;28;20075;-89
2022/08/03 01:36:28;;;;;;;;;;;;;;;;;;;;;
2022/08/03 01:39:18;;;;;;;;;;;;;;;;;;;;;
2022/08/03 01:42:15;;;;;;;3.60;3.15;;;19.00;99.90;;;;;;5071410;28;20035;-88
2022/08/03 01:44:54;;;;;;;3.05;2.83;;;19.10;99.90;;;;;;5072832;28;20052;-88
2022/08/03 01:47:47;;;;;;;;;;;;;;;;;;;;;
2022/08/03 01:50:45;;;;;;;;;;;;;;;;;;;;;
2022/08/03 01:53:26;;;;;;;3.05;2.70;;;19.10;99.90;;;;;;5074857;28;20028;-88
2022/08/03 01:56:29;;;;;;;;;;;;;;;;;;;;;
2022/08/03 01:59:07;;;;;;;3.65;3.22;;;19.10;99.90;;;;;;5059907;28;20400;-88
2022/08/03 02:01:50;;;;;;;;;;;;;;;;;;;;;
2022/08/03 02:04:32;;;;;;;3.20;3.00;;;19.00;99.90;;;;;;5076242;28;20037;-88
2022/08/03 02:07:01;;;;;;;5.65;3.10;;;;;;;;;;5070580;28;20035;-88
2022/08/03 02:12:52;;;;;;;;;;;;;;;;;;;;;
2022/08/03 02:15:28;;;;;;;3.10;2.50;;;;;;;;;;5067417;28;20040;-88
2022/08/03 02:17:59;;;;;;;3.58;3.00;;;;;;;;;;5067178;28;20027;-88
2022/08/03 02:20:38;;;;;;;;;;;;;;;;;;;;;
2022/08/03 02:23:20;;;;;;;;;;;;;;;;;;;;;
2022/08/03 02:28:43;;;;;;;3.03;2.83;;;;;;;;;;5120617;28;20032;-85
2022/08/03 02:31:12;;;;;;;;;;;;;;;;;;5095248;28;20032;-85
2022/08/03 02:33:49;;;;;;;2.83;2.53;;;;;;;;;;5115762;28;19916;-86
2022/08/03 02:36:30;;;;;;;;;;;;;;;;;;;;;
2022/08/03 02:39:22;;;;;;;4.13;3.05;;;;;;;;;;5088646;28;20040;-87
2022/08/03 02:42:04;;;;;;;;;;;;;;;;;;;;;
2022/08/03 02:44:49;;;;;;;;;;;;;;;;;;;;;
2022/08/03 02:47:48;;;;;;;;;;;;;;;;;;;;;
2022/08/03 02:50:18;;;;;;;5.30;2.63;;;;;;;;;;5094404;28;20038;-88
2022/08/03 02:52:57;;;;;;;;;;;;;;;;;;;;;
2022/08/03 02:55:33;;;;;;;2.87;2.67;;;18.60;99.90;;;;;;5089664;28;20024;-88
2022/08/03 02:58:03;;;;;;;3.83;3.13;;;18.60;99.90;;;;;;5070784;28;20785;-87
2022/08/03 03:00:34;;;;;;;3.40;3.03;;;18.50;99.90;;;;;;5086042;28;20447;-88
2022/08/03 03:03:06;;;;;;;3.30;3.00;;;18.50;99.90;;;;;;5081940;28;20117;-88
2022/08/03 03:06:07;;;;;;;;;;;;;;;;;;;;;
2022/08/03 03:08:41;;;;;;;3.38;3.13;;;18.40;99.90;;;;;;5081841;28;20031;-86
2022/08/03 03:14:18;;;;;;;;;;;;;;;;;;;;;
2022/08/03 03:20:06;;;;;;;3.63;3.30;;;18.30;99.90;;;;;;5099401;28;20031;-88
2022/08/03 03:22:44;;;;;;;4.43;3.78;;;18.30;99.90;;;;;;5073197;28;20043;-89
2022/08/03 03:25:59;;;;;;;;;;;;;;;;;;;;;
2022/08/03 03:31:41;;;;;;;4.30;3.55;;;18.20;99.90;;;;;;5096234;28;20062;-89
2022/08/03 03:34:12;;;;;;;4.55;3.65;;;18.20;99.90;;;;;;5077713;28;20063;-90
2022/08/03 03:36:43;;;;;;;6.53;3.90;;;18.20;99.90;;;;;;5085391;28;20040;-88
2022/08/03 03:39:40;;;;;;;6.63;4.55;;;18.20;99.90;;;;;;5083875;28;20134;-88
2022/08/03 03:42:09;;;;;;;6.07;4.60;;;18.20;99.90;;;;;;4995627;28;20042;-89
2022/08/03 03:44:47;;;;;;;4.18;3.78;;;18.20;99.90;;;;;;5010515;28;20038;-89
2022/08/03 03:47:19;;;;;;;7.03;3.78;;;18.20;99.90;;;;;;4986974;28;20073;-88
2022/08/03 03:50:02;;;;;;;7.20;4.35;;;18.20;99.90;;;;;;4990316;28;20025;-87
2022/08/03 03:56:14;;;;;;;7.00;4.25;;;18.10;99.90;;;;;;4970066;28;20038;-89
2022/08/03 04:02:16;;;;;;;5.28;4.13;;;18.10;99.90;;;;;;5004089;28;20044;-88
2022/08/03 04:11:37;;;;;;;;;;;;;;;;;;;;;
2022/08/03 04:14:19;;;;;;;4.43;4.05;;;17.90;99.90;;;;;;5017693;28;20038;-88
2022/08/03 04:17:09;;;;;;;4.85;4.30;;;17.90;99.90;;;;;;4992675;28;20038;-88
2022/08/03 04:23:15;;;;;;;5.07;3.78;;;17.90;99.90;;;;;;5091962;28;20051;-83
2022/08/03 04:26:04;;;;;;;;;;;;;;;;;;;;;
2022/08/03 04:28:44;;;;;;;7.07;4.88;;;18.00;99.90;;;;;;5095630;28;20069;-89
2022/08/03 04:31:37;;;;;;;6.50;4.43;;;18.00;99.90;;;;;;5074276;28;20023;-89
2022/08/03 04:34:37;;;;;;;4.60;4.20;;;18.10;99.90;;;;;;5064806;28;20044;-88
2022/08/03 04:37:12;;;;;;;6.63;4.72;;;18.10;99.90;;;;;;5093279;28;20085;-89
2022/08/03 04:39:43;;;;;;;4.07;3.67;;;18.20;99.90;;;;;;5072745;28;20115;-89
2022/08/03 04:42:27;;;;;;;5.05;4.60;;;18.20;99.90;;;;;;5079832;28;20227;-88
2022/08/03 04:45:09;;;;;;;;;;;;;;;;;;;;;
2022/08/03 04:47:56;;;;;;;6.40;5.15;;;18.40;99.90;;;;;;5091983;28;20376;-88
2022/08/03 04:51:05;;;;;;;5.07;4.50;;;18.40;99.90;;;;;;5093444;28;20024;-88
2022/08/03 04:57:15;;;;;;;;;;;;;;;;;;;;;
2022/08/03 05:00:04;;;;;;;4.47;4.10;;;18.70;99.90;;;;;;5099573;28;20024;-88
2022/08/03 05:02:41;;;;;;;6.75;4.28;;;18.80;99.90;;;;;;5098414;28;20215;-88
2022/08/03 05:05:25;;;;;;;6.85;4.35;;;18.80;99.90;;;;;;5079941;28;20123;-89
2022/08/03 05:08:00;;;;;;;4.45;4.05;;;18.90;99.90;;;;;;5071711;28;20028;-90
2022/08/03 05:13:39;;;;;;;5.03;4.53;;;19.10;99.90;;;;;;5086336;28;20032;-88
2022/08/03 05:16:21;;;;;;;5.22;4.80;;;19.20;99.90;;;;;;5070341;28;20071;-88
2022/08/03 05:18:58;;;;;;;5.07;4.57;;;19.30;99.90;;;;;;5070431;28;20414;-89
2022/08/03 05:22:05;;;;;;;;;;;;;;;;;;;;;
2022/08/03 05:27:16;;;;;;;4.82;4.13;;;19.50;99.90;;;;;;5102642;27;20044;-89
2022/08/03 05:29:42;;;;;;;5.28;4.72;;;19.60;99.90;;;;;;5087302;28;20461;-89
2022/08/03 05:32:30;;;;;;;5.00;4.50;;;19.70;99.90;;;;;;5075652;28;20461;-88
2022/08/03 05:35:16;;;;;;;8.38;4.90;;;19.80;99.90;;;;;;5076336;28;20046;-88
2022/08/03 05:37:56;;;;;;;5.15;4.65;;;20.00;99.90;;;;;;5079213;28;20043;-88
2022/08/03 05:40:22;;;;;;;5.32;4.75;;;20.10;99.90;;;;;;5090943;28;20031;-82
2022/08/03 05:42:57;;;;;;;6.85;4.63;;;20.20;99.90;;;;;;5108426;28;20035;-89
2022/08/03 05:45:45;;;;;;;6.05;5.03;;;20.40;99.90;;;;;;5106875;28;20118;-89
2022/08/03 05:48:25;;;;;;;5.90;4.97;;;20.60;99.90;;;;;;5071131;28;20694;-87
2022/08/03 05:51:03;;;;;;;5.72;4.90;;;20.70;99.90;;;;;;5083061;28;20116;-89
2022/08/03 05:53:42;;;;;;;5.00;4.35;;;20.80;99.90;;;;;;5113254;27;20044;-88
2022/08/03 05:56:27;;;;;;;5.40;4.30;;;20.90;99.90;;;;;;5108031;28;20036;-88
2022/08/03 05:59:45;;;;;;;6.43;4.60;;;21.00;99.90;;;;;;5079215;28;20024;-88
2022/08/03 06:02:21;;;;;;;5.03;4.28;;;21.10;99.90;;;;;;5075037;28;20023;-88
2022/08/03 06:05:13;;;;;;;5.47;4.72;;;21.20;99.90;;;;;;5078791;28;20039;-87
2022/08/03 06:07:39;;;;;;;6.50;4.43;;;21.30;99.90;;;;;;5076845;28;20028;-88
2022/08/03 06:10:25;;;;;;;7.38;4.88;;;21.40;99.90;;;;;;5067203;28;20132;-88
2022/08/03 06:13:16;;;;;;;5.88;4.80;;;21.50;99.90;;;;;;5079205;28;20036;-88
2022/08/03 06:16:08;;;;;;;5.90;3.83;;;21.60;99.90;;;;;;5090511;28;20042;-87
2022/08/03 06:18:37;;;;;;;4.93;3.90;;;21.70;99.90;;;;;;5099055;28;20052;-88
2022/08/03 06:21:35;;;;;;;5.30;4.15;;;21.80;99.90;;;;;;5102334;28;20476;-86
2022/08/03 06:24:13;;;;;;;4.82;4.32;;;22.00;99.90;;;;;;5122879;27;20032;-84
2022/08/03 06:26:38;;;;;;;4.72;4.22;;;22.10;99.90;;;;;;5121449;28;20031;-73
2022/08/03 06:29:04;;;;;;;4.65;4.25;;;22.20;99.90;;;;;;5076024;28;20400;-76
2022/08/03 06:31:29;;;;;;;6.03;4.05;;;22.30;99.90;;;;;;5078822;28;20029;-77
2022/08/03 06:33:55;;;;;;;5.35;4.53;;;22.40;99.90;;;;;;5067749;28;20106;-75
2022/08/03 06:36:21;;;;;;;6.30;4.38;;;22.50;99.90;;;;;;5067568;28;20041;-76
2022/08/03 06:38:48;;;;;;;4.70;4.18;;;22.60;99.90;;;;;;5074200;28;20116;-74
2022/08/03 06:41:29;;;;;;;6.45;4.15;;;22.60;99.90;;;;;;5088966;28;20042;-76
2022/08/03 06:43:55;;;;;;;4.43;3.65;;;22.70;99.90;;;;;;5069488;28;20107;-76
2022/08/03 06:46:21;;;;;;;8.98;4.75;;;22.80;99.90;;;;;;5077908;28;20037;-76
2022/08/03 06:48:46;;;;;;;6.20;3.72;;;22.90;99.90;;;;;;5074924;28;20462;-76
2022/08/03 06:51:13;;;;;;;6.43;4.18;;;23.00;99.90;;;;;;5069309;28;20119;-76
2022/08/03 06:53:38;;;;;;;9.20;4.38;;;23.10;99.90;;;;;;5077846;28;20024;-74
2022/08/03 06:56:05;;;;;;;6.22;3.97;;;23.10;99.90;;;;;;5084957;28;20097;-94
2022/08/03 06:58:31;;;;;;;7.00;3.97;;;23.10;99.90;;;;;;5088186;28;20039;-81
2022/08/03 07:00:56;;;;;;;5.07;3.72;;;23.20;99.90;;;;;;5076543;28;20089;-93
2022/08/03 07:03:22;;;;;;;5.28;4.28;;;23.40;99.90;;;;;;5085800;28;20021;-94
2022/08/03 07:05:48;;;;;;;5.13;3.78;;;23.50;99.90;;;;;;5082509;28;20469;-94
2022/08/03 07:08:14;;;;;;;6.20;3.63;;;23.60;99.90;;;;;;5082996;28;20029;-95
2022/08/03 07:10:40;;;;;;;6.05;3.80;;;23.70;99.90;;;;;;5077692;28;20097;-91
2022/08/03 07:13:06;;;;;;;5.70;3.72;;;23.80;99.90;;;;;;5103470;28;20051;-90
2022/08/03 07:15:32;;;;;;;11.77;3.97;;;23.90;99.90;;;;;;5075977;28;20033;-91
2022/08/03 07:17:58;;;;;;;6.82;3.85;;;24.10;99.90;;;;;;5063888;28;20031;-92
2022/08/03 07:20:24;;;;;;;5.20;3.80;;;24.30;99.90;;;;;;5074267;28;20088;-95
2022/08/03 07:22:49;;;;;;;6.95;4.18;;;24.50;99.90;;;;;;5068773;28;20045;-85
2022/08/03 07:25:15;;;;;;;6.90;4.22;;;24.70;99.90;;;;;;5057405;28;20043;-92
2022/08/03 07:27:44;;;;;;;4.68;4.05;;;24.80;99.90;;;;;;5055202;28;20021;-86
2022/08/03 07:30:11;;;;;;;7.53;4.20;;;24.90;99.90;;;;;;5061074;28;20029;-89
2022/08/03 07:32:36;;;;;;;5.93;3.80;;;25.00;99.90;;;;;;5063442;28;20017;-92
2022/08/03 07:35:04;;;;;;;5.07;3.67;;;25.10;99.90;;;;;;5067544;28;20101;-91
2022/08/03 07:37:30;;;;;;;3.95;3.55;;;25.30;99.90;;;;;;5078074;28;20031;-95
2022/08/03 07:39:56;;;;;;;5.65;3.47;;;25.40;99.90;;;;;;5045624;28;20041;-93
2022/08/03 07:42:22;;;;;;;4.38;3.58;;;25.50;99.90;;;;;;5065846;28;20037;-95
2022/08/03 07:44:54;;;;;;;3.53;3.13;;;25.70;99.90;;;;;;5062458;28;20567;-88
2022/08/03 07:47:25;;;;;;;4.63;3.15;;;25.80;99.90;;;;;;5066034;28;20039;-94
2022/08/03 07:49:54;;;;;;;3.88;2.00;;;25.90;99.40;;;;;;5062869;28;20080;-83
2022/08/03 07:55:06;;;;;;;5.90;2.10;;;26.20;98.70;;;;;;5056038;28;20115;-92
2022/08/03 07:57:32;;;;;;;3.35;2.22;;;26.40;97.90;;;;;;5061976;28;20060;-94
2022/08/03 07:59:58;;;;;;;9.40;2.80;;;26.60;97.30;;;;;;5065508;28;20430;-87
2022/08/03 08:02:24;;;;;;;3.92;2.72;;;26.80;96.70;;;;;;5080226;28;20037;-90
2022/08/03 08:04:49;;;;;;;5.00;2.95;;;26.90;97.10;;;;;;5059855;28;20033;-85
2022/08/03 08:07:15;;;;;;;2.15;1.95;;;27.10;97.20;;;;;;5054536;28;20071;-80
2022/08/03 08:09:41;;;;;;;3.03;2.20;;;27.10;95.60;;;;;;5033727;28;20025;-76
2022/08/03 08:12:08;;;;;;;3.35;1.90;;;27.20;95.10;;;;;;5052599;28;20037;-78
2022/08/03 08:14:34;;;;;;;3.17;2.13;;;27.30;94.40;;;;;;5052825;28;20040;-79
2022/08/03 08:17:00;;;;;;;2.97;1.90;;;27.50;93.60;;;;;;5051458;28;20021;-78
2022/08/03 08:19:25;;;;;;;2.08;1.92;;;27.60;93.20;;;;;;5056451;28;20035;-78
2022/08/03 08:21:51;;;;;;;2.85;1.60;;;27.70;93.00;;;;;;5055148;28;20040;-80
2022/08/03 08:24:17;;;;;;;1.92;1.70;;;27.80;92.10;;;;;;5075688;28;20103;-78
2022/08/03 08:26:42;;;;;;;2.08;1.50;;;27.90;92.00;;;;;;5097013;28;20020;-78
2022/08/03 08:29:08;;;;;;;2.00;1.83;;;28.00;91.10;;;;;;5101586;28;20032;-76
2022/08/03 08:31:34;;;;;;;4.22;1.67;;;28.10;91.10;;;;;;5093687;28;20020;-78
2022/08/03 08:34:04;;;;;;;2.30;1.60;;;28.20;90.90;;;;;;5101557;28;20142;-79
2022/08/03 08:36:36;;;;;;;2.95;1.95;;;28.30;90.70;;;;;;5095402;28;20032;-78
2022/08/03 08:39:02;;;;;;;3.08;1.70;;;28.40;90.60;;;;;;5095231;28;20058;-79
2022/08/03 08:41:27;;;;;;;4.40;1.80;;;28.60;89.80;;;;;;5090995;28;20052;-78
2022/08/03 08:43:54;;;;;;;2.00;1.38;;;28.70;88.20;;;;;;5092607;28;20448;-80
2022/08/03 08:46:20;;;;;;;1.73;1.50;;;28.90;87.30;;;;;;5073159;28;20436;-79
2022/08/03 08:48:48;;;;;;;2.53;1.10;;;29.00;86.40;;;;;;5090948;28;20024;-78
2022/08/03 08:51:18;;;;;;;2.00;1.25;;;29.10;84.90;;;;;;5093574;28;20139;-78
2022/08/03 08:53:46;;;;;;;3.55;1.30;;;29.20;84.40;;;;;;5093822;28;20031;-79
2022/08/03 08:56:16;;;;;;;1.52;1.42;;;29.30;84.00;;;;;;5092925;28;20222;-79
2022/08/03 08:58:51;;;;;;;2.42;1.70;;;29.40;84.20;;;;;;5102412;28;20035;-78
2022/08/03 09:01:18;;;;;;;1.80;1.33;;;29.50;82.10;;;;;;5098503;28;20032;-78
2022/08/03 09:03:45;;;;;;;2.30;1.90;;;29.60;81.90;;;;;;5097537;28;20024;-79
2022/08/03 09:06:10;;;;;;;5.03;1.70;;;29.60;80.90;;;;;;5097101;28;20024;-78
2022/08/03 09:08:36;;;;;;;2.17;1.20;;;29.60;80.60;;;;;;5097889;28;20111;-79
2022/08/03 09:11:02;;;;;;;1.52;1.40;;;29.70;80.50;;;;;;5099122;28;20043;-78
2022/08/03 09:13:29;;;;;;;1.73;1.63;;;29.80;79.40;;;;;;5096031;28;20465;-78
2022/08/03 09:16:19;;;;;;;5.05;1.63;;;29.90;79.00;;;;;;5098930;28;20553;-79
2022/08/03 09:18:46;;;;;;;;;;;30.00;78.00;;;;;;5099212;28;20138;-78
2022/08/03 09:21:14;;;;;;;6.55;1.70;;;30.00;76.90;;;;;;5093330;28;19904;-80
2022/08/03 09:23:51;;;;;;;2.28;1.27;;;30.10;76.90;;;;;;5095676;28;20068;-79
2022/08/03 09:26:36;;;;;;;4.20;1.65;;;30.10;76.80;;;;;;5096058;28;20439;-79
2022/08/03 09:29:07;;;;;;;3.47;1.80;;;30.20;75.50;;;;;;5096036;28;20460;-80
2022/08/03 09:31:34;;;;;;;1.42;1.33;;;30.20;75.50;;;;;;5101907;28;20038;-79
2022/08/03 09:34:09;;;;;;;2.45;1.60;;;30.40;74.60;;;;;;5078388;28;20078;-76
2022/08/03 09:36:37;;;;;;;5.50;1.95;;;30.50;75.20;;;;;;5097393;28;20028;-79
2022/08/03 09:39:11;;;;;;;2.40;1.77;;;30.60;75.00;;;;;;5097777;28;20445;-77
2022/08/03 09:41:45;;;;;;;2.05;1.65;;;30.70;74.90;;;;;;5083924;28;20023;-78
2022/08/03 09:44:11;;;;;;;3.58;1.65;;;30.90;73.40;;;;;;5102134;28;20027;-85
2022/08/03 09:46:55;;;;;;;4.60;1.90;;;31.00;72.70;;;;;;5094463;28;20031;-78
2022/08/03 09:49:21;;;;;;;3.30;1.50;;;31.20;73.10;;;;;;5097336;28;20058;-78
2022/08/03 09:51:47;;;;;;;2.97;1.73;;;31.30;71.60;;;;;;5104740;28;20032;-76
2022/08/03 09:54:26;;;;;;;1.65;1.48;;;31.30;70.20;;;;;;5085309;28;20099;-77
2022/08/03 09:56:52;;;;;;;3.97;1.30;;;31.40;68.40;;;;;;5090401;28;20047;-78
2022/08/03 09:59:29;;;;;;;4.00;1.33;;;31.60;67.30;;;;;;5099172;28;20036;-77
2022/08/03 10:01:57;;;;;;;4.13;1.63;;;31.60;67.50;;;;;;5104738;28;20100;-78
2022/08/03 10:04:23;;;;;;;4.03;1.42;;;31.70;67.90;;;;;;5105281;28;20098;-77
2022/08/03 10:07:23;;;;;;;3.17;1.50;;;31.80;66.30;;;;;;5102404;28;20048;-78
2022/08/03 10:09:57;;;;;;;2.47;1.40;;;31.90;65.70;;;;;;5072005;28;20032;-80
2022/08/03 10:12:24;;;;;;;2.50;1.75;;;32.00;65.50;;;;;;5097326;28;20043;-78
2022/08/03 10:14:51;;;;;;;2.78;1.30;;;32.00;65.90;;;;;;5094491;28;20036;-78
2022/08/03 10:17:17;;;;;;;5.93;1.40;;;32.00;65.40;;;;;;5095128;28;20456;-79
2022/08/03 10:19:43;;;;;;;4.18;1.63;;;31.90;65.60;;;;;;5102371;28;20031;-78
2022/08/03 10:22:13;;;;;;;5.03;1.58;;;31.90;65.70;;;;;;5092252;28;20051;-80
2022/08/03 10:25:02;;;;;;;1.50;1.40;;;31.90;65.70;;;;;;5101413;28;20542;-79
2022/08/03 10:27:44;;;;;;;2.03;1.50;;;31.80;65.70;;;;;;5092015;28;20061;-78
2022/08/03 10:30:11;;;;;;;2.70;1.60;;;31.90;65.50;;;;;;5093652;28;20036;-78
2022/08/03 10:32:52;;;;;;;1.50;1.40;;;32.10;64.70;;;;;;5104533;28;20024;-78
2022/08/03 10:35:20;;;;;;;2.17;1.70;;;32.30;63.70;;;;;;5083581;28;20473;-79
2022/08/03 10:37:51;;;;;;;1.50;1.40;;;32.30;63.90;;;;;;5094938;28;20086;-79
2022/08/03 10:40:19;;;;;;;3.42;1.40;;;32.40;63.20;;;;;;5106728;28;20031;-79
2022/08/03 10:42:48;;;;;;;1.80;1.70;;;32.50;62.30;;;;;;5123769;27;20012;-78
2022/08/03 10:45:25;;;;;;;3.40;1.95;;;32.50;63.00;;;;;;5104967;28;20787;-79
2022/08/03 10:47:53;;;;;;;3.63;1.65;;;32.50;63.00;;;;;;5095378;28;20067;-80
2022/08/03 10:50:21;;;;;;;1.40;1.30;;;32.60;62.60;;;;;;5101860;28;20032;-77
2022/08/03 10:53:01;;;;;;;3.40;1.38;;;32.70;63.20;;;;;;5091448;28;20072;-80
2022/08/03 10:58:37;;;;;;;1.85;1.75;;;32.80;62.70;;;;;;5095414;28;20034;-78
2022/08/03 11:01:07;;;;;;;3.40;1.40;;;32.90;62.40;;;;;;5104643;28;20059;-79
2022/08/03 11:03:53;;;;;;;2.63;2.08;;;32.80;62.60;;;;;;5101333;28;20031;-80
2022/08/03 11:06:21;;;;;;;4.32;1.60;;;32.90;62.70;;;;;;5094211;28;20032;-78
2022/08/03 11:08:48;;;;;;;5.85;1.85;;;33.00;62.10;;;;;;5095532;28;20479;-82
2022/08/03 11:11:16;;;;;;;1.63;1.52;;;33.10;61.80;;;;;;5092028;28;20405;-79
2022/08/03 11:14:06;;;;;;;4.55;1.73;;;33.10;61.70;;;;;;5105938;28;20019;-81
2022/08/03 11:16:36;;;;;;;4.90;1.50;;;33.20;61.60;;;;;;5090483;28;20111;-77
2022/08/03 11:19:09;;;;;;;4.80;2.13;;;33.20;61.10;;;;;;5103438;28;20030;-80
2022/08/03 11:21:47;;;;;;;1.92;1.80;;;33.20;61.50;;;;;;5096527;28;20027;-77
2022/08/03 11:24:52;;;;;;;1.90;1.80;;;33.20;60.70;;;;;;5096870;28;20036;-79
2022/08/03 11:27:23;;;;;;;2.80;1.80;;;33.20;60.60;;;;;;5101374;28;20039;-84
2022/08/03 11:29:56;;;;;;;7.32;1.80;;;33.20;60.70;;;;;;5097261;28;20477;-80
2022/08/03 11:32:40;;;;;;;1.58;1.27;;;33.30;60.60;;;;;;5107077;28;20083;-78
2022/08/03 11:35:07;;;;;;;2.95;1.50;;;33.30;60.20;;;;;;5091611;28;20047;-81
2022/08/03 11:37:53;;;;;;;1.73;1.63;;;33.30;60.50;;;;;;5104770;28;20023;-80
2022/08/03 11:40:43;;;;;;;3.65;1.50;;;33.40;60.30;;;;;;5101542;28;20032;-78
2022/08/03 11:43:21;;;;;;;3.80;1.30;;;33.40;60.80;;;;;;5103554;28;20528;-81
2022/08/03 11:46:04;;;;;;;2.40;1.33;;;33.30;60.10;;;;;;5098142;28;20518;-78
2022/08/03 11:48:36;;;;;;;2.45;1.77;;;33.30;60.10;;;;;;5093446;28;20508;-79
2022/08/03 11:51:04;;;;;;;2.47;1.95;;;33.40;59.90;;;;;;5094163;28;20035;-79
2022/08/03 11:53:30;;;;;;;3.33;1.67;;;33.50;60.00;;;;;;5097546;28;20040;-78
2022/08/03 11:56:04;;;;;;;3.00;1.60;;;33.70;59.50;;;;;;5094661;28;20460;-78
2022/08/03 11:58:29;;;;;;;2.42;1.50;;;33.70;59.50;;;;;;5078764;28;20494;-77
2022/08/03 12:01:06;;;;;;;1.33;1.23;;;33.80;59.60;;;;;;5097653;28;20076;-80
2022/08/03 12:03:33;;;;;;;2.42;1.90;;;33.90;58.70;;;;;;5099983;28;20035;-80
2022/08/03 12:06:03;;;;;;;2.00;1.90;;;34.10;59.10;;;;;;5096678;28;20051;-80
2022/08/03 12:08:35;;;;;;;1.90;1.80;;;34.30;58.80;;;;;;5099591;28;20055;-79
2022/08/03 12:11:05;;;;;;;1.67;1.58;;;34.50;58.10;;;;;;5076479;28;20067;-78
2022/08/03 12:13:46;;;;;;;1.80;1.35;;;34.50;58.10;;;;;;5096846;28;20094;-79
2022/08/03 12:16:20;;;;;;;1.88;1.77;;;34.60;58.10;;;;;;5087573;28;20042;-79
2022/08/03 12:19:00;;;;;;;2.15;1.48;;;34.60;58.50;;;;;;5091452;28;20102;-78
2022/08/03 12:21:26;;;;;;;;;;;34.70;58.60;;;;;;5095362;28;20075;-78
2022/08/03 12:23:58;;;;;;;1.60;1.42;;;34.80;57.80;;;;;;5110962;28;20343;-79
2022/08/03 12:26:25;;;;;;;3.22;1.77;;;34.80;57.60;;;;;;5098511;28;20038;-78
2022/08/03 12:28:51;;;;;;;1.85;1.70;;;34.70;57.80;;;;;;5096137;28;20457;-80
2022/08/03 12:31:17;;;;;;;1.88;1.50;;;34.70;57.90;;;;;;5079010;28;20032;-78
2022/08/03 12:34:05;;;;;;;2.03;1.80;;;34.80;57.90;;;;;;5098837;28;20044;-78
2022/08/03 12:36:32;;;;;;;1.90;1.80;;;34.90;57.40;;;;;;5097369;28;20357;-78
2022/08/03 12:39:01;;;;;;;1.80;1.65;;;35.10;56.90;;;;;;5100167;28;20095;-78
2022/08/03 12:41:35;;;;;;;2.92;1.50;;;35.10;56.70;;;;;;5102710;28;20104;-78
2022/08/03 12:44:05;;;;;;;1.80;1.70;;;35.20;57.20;;;;;;5109103;28;20116;-79
2022/08/03 12:46:33;;;;;;;2.17;1.40;;;35.40;56.60;;;;;;5095862;28;20054;-78
2022/08/03 12:49:09;;;;;;;3.63;1.65;;;35.50;55.90;;;;;;5097594;28;20028;-80
2022/08/03 12:51:56;;;;;;;2.20;1.65;;;35.50;55.90;;;;;;5084614;28;20031;-78
2022/08/03 12:54:30;;;;;;;4.22;1.98;;;35.40;56.30;;;;;;5083475;28;20051;-77
2022/08/03 12:57:12;;;;;;;2.30;1.58;;;35.40;56.30;;;;;;5093872;28;20116;-78
2022/08/03 12:59:45;;;;;;;1.98;1.65;;;35.40;55.80;;;;;;5101277;28;20114;-77
2022/08/03 13:02:16;;;;;;;3.38;1.63;;;35.30;55.80;;;;;;5089770;28;20027;-78
2022/08/03 13:04:42;;;;;;;3.08;1.83;;;35.30;56.80;;;;;;5093614;28;20119;-78
2022/08/03 13:07:10;;;;;;;3.65;1.60;;;35.30;56.20;;;;;;5090775;28;20109;-79
2022/08/03 13:09:52;;;;;;;2.85;1.65;;;35.40;56.20;;;;;;5102460;28;20093;-75
2022/08/03 13:12:20;;;;;;;1.65;1.40;;;35.50;56.30;;;;;;5094583;28;20029;-78
2022/08/03 13:14:49;;;;;;;3.30;1.67;;;35.70;55.80;;;;;;5079029;28;20032;-77
2022/08/03 13:17:17;;;;;;;2.13;1.98;;;35.70;55.60;;;;;;5094558;28;20106;-77
2022/08/03 13:19:44;;;;;;;2.17;2.00;;;35.80;55.30;;;;;;5093592;28;20465;-76
2022/08/03 13:22:18;;;;;;;1.77;1.65;;;36.00;55.10;;;;;;5096390;28;20060;-77
2022/08/03 13:24:45;;;;;;;1.80;1.70;;;36.00;55.20;;;;;;5076414;28;20039;-78
2022/08/03 13:27:11;;;;;;;4.43;1.90;;;36.10;54.60;;;;;;5076488;28;20028;-78
2022/08/03 13:29:37;;;;;;;2.90;1.80;;;36.00;54.70;;;;;;5077868;28;20024;-78
2022/08/03 13:32:03;;;;;;;8.80;1.50;;;36.00;54.50;;;;;;5065629;28;20086;-78
2022/08/03 13:34:29;;;;;;;3.47;1.95;;;36.00;54.70;;;;;;5059038;28;20424;-78
2022/08/03 13:36:54;;;;;;;2.22;2.03;;;36.00;54.50;;;;;;5067397;28;20037;-78
2022/08/03 13:39:20;;;;;;;1.88;1.50;;;36.20;54.20;;;;;;5064979;28;20075;-79
2022/08/03 13:41:46;;;;;;;2.47;2.03;;;36.30;54.10;;;;;;5068757;28;20094;-79
2022/08/03 13:44:12;;;;;;;3.45;1.73;;;36.30;54.00;;;;;;5062557;28;20032;-78
2022/08/03 13:46:38;;;;;;;3.72;1.80;;;36.30;54.20;;;;;;5072627;28;20036;-78
2022/08/03 13:49:04;;;;;;;4.80;1.60;;;36.40;54.50;;;;;;5068831;28;20033;-77
2022/08/03 13:51:30;;;;;;;4.80;2.05;;;36.40;54.00;;;;;;5071096;28;20029;-77
2022/08/03 13:53:58;;;;;;;1.90;1.77;;;36.50;54.10;;;;;;5076307;28;20040;-78
2022/08/03 13:56:27;;;;;;;1.45;1.45;;;36.60;54.00;;;;;;5077183;28;20033;-78
2022/08/03 13:58:53;;;;;;;4.25;1.55;;;36.70;53.50;;;;;;5074328;28;20550;-79
2022/08/03 14:01:18;;;;;;;3.17;1.65;;;36.70;53.80;;;;;;5074301;28;20028;-78
2022/08/03 14:03:47;;;;;;;2.78;1.58;;;36.70;53.60;;;;;;5077006;28;20469;-77
2022/08/03 14:06:13;;;;;;;2.53;1.60;;;36.80;53.50;;;;;;5073917;28;20650;-76
2022/08/03 14:08:39;;;;;;;4.20;1.88;;;36.70;53.60;;;;;;5066934;28;20037;-75
2022/08/03 14:11:05;;;;;;;3.22;1.60;;;36.60;53.20;;;;;;5065557;28;20024;-78
2022/08/03 14:13:30;;;;;;;1.88;1.77;;;36.50;53.20;;;;;;5068249;28;20429;-77
2022/08/03 14:15:56;;;;;;;2.10;1.73;;;36.30;53.00;;;;;;5062479;28;20036;-78
2022/08/03 14:18:23;;;;;;;2.10;1.70;;;36.20;53.30;;;;;;5060444;28;20029;-77
2022/08/03 14:20:48;;;;;;;2.42;2.03;;;36.10;53.80;;;;;;5068793;28;20111;-76
2022/08/03 14:23:14;;;;;;;2.22;1.70;;;36.20;53.40;;;;;;5061620;28;20084;-75
2022/08/03 14:25:40;;;;;;;2.60;1.65;;;36.30;53.50;;;;;;5062373;28;20040;-76
2022/08/03 14:28:06;;;;;;;1.73;1.63;;;36.50;53.80;;;;;;5067158;28;20040;-76
2022/08/03 14:30:33;;;;;;;2.20;1.42;;;36.60;53.20;;;;;;5065588;28;20389;-77
2022/08/03 14:32:59;;;;;;;5.45;1.50;;;36.70;54.20;;;;;;5061788;28;20032;-76
2022/08/03 14:35:24;;;;;;;3.05;1.85;;;36.70;53.20;;;;;;5068337;28;20024;-76
2022/08/03 14:37:50;;;;;;;2.00;1.90;;;36.90;53.20;;;;;;5059677;28;20501;-77
2022/08/03 14:40:20;;;;;;;2.03;1.90;;;37.00;52.70;;;;;;5060717;28;20040;-76
2022/08/03 14:42:45;;;;;;;2.08;1.90;;;37.10;52.70;;;;;;5070683;28;20513;-76
2022/08/03 14:45:12;;;;;;;3.15;1.60;;;37.40;52.10;;;;;;5057906;28;20035;-77
2022/08/03 14:47:38;;;;;;;1.92;1.80;;;37.60;52.30;;;;;;5063523;28;20036;-76
2022/08/03 14:50:04;;;;;;;3.28;1.70;;;38.00;51.50;;;;;;5062488;28;20039;-75
2022/08/03 14:52:31;;;;;;;2.15;1.75;;;38.20;51.40;;;;;;5058302;28;20478;-76
2022/08/03 14:54:57;;;;;;;1.50;1.40;;;38.30;50.60;;;;;;5063081;28;20036;-77
2022/08/03 14:57:23;;;;;;;3.15;1.83;;;38.40;50.50;;;;;;5051278;28;20428;-77
2022/08/03 14:59:49;;;;;;;1.88;1.77;;;38.60;50.40;;;;;;5067327;28;20028;-76
2022/08/03 15:02:15;;;;;;;3.50;1.63;;;38.60;50.00;;;;;;5062225;28;20465;-76
2022/08/03 15:04:41;;;;;;;2.65;1.90;;;38.60;50.20;;;;;;5065630;28;20098;-76
2022/08/03 15:07:08;;;;;;;1.75;1.55;;;38.90;49.80;;;;;;5064290;28;20029;-74
2022/08/03 15:09:36;;;;;;;1.58;1.48;;;39.00;49.10;;;;;;5058968;28;20033;-74
2022/08/03 15:12:06;;;;;;;2.03;1.60;;;39.10;48.80;;;;;;5058871;28;20036;-75
2022/08/03 15:14:32;;;;;;;;;;;39.10;48.90;;;;;;5066188;28;20051;-74
2022/08/03 15:16:58;;;;;;;2.08;1.90;;;39.20;48.80;;;;;;5064125;28;20399;-75
2022/08/03 15:19:24;;;;;;;3.67;1.55;;;39.10;48.60;;;;;;5058796;28;20072;-75
2022/08/03 15:21:51;;;;;;;3.10;1.52;;;39.10;48.70;;;;;;5061721;28;20021;-75